createdAt,value
2022-11-28T00:01:39.081Z,97466.72
2022-11-28T00:04:08.034Z,97466.78
2022-11-28T00:06:38.382Z,97464.94
2022-11-28T00:09:08.480Z,97456.19
2022-11-28T00:11:37.100Z,97462.53
2022-11-28T00:14:05.365Z,97454.53
2022-11-28T00:16:33.832Z,97459.06
2022-11-28T00:19:03.876Z,97456.50
2022-11-28T00:21:32.281Z,97442.63
2022-11-28T00:24:00.818Z,97447.78
2022-11-28T00:26:32.713Z,97441.94
2022-11-28T00:29:04.152Z,97440.09
2022-11-28T00:31:35.673Z,97431.53
2022-11-28T00:34:04.335Z,97440.06
2022-11-28T00:36:32.387Z,97438.50
2022-11-28T00:39:00.513Z,97442.75
2022-11-28T00:41:31.494Z,97439.16
2022-11-28T00:43:59.848Z,97431.44
2022-11-28T00:46:28.406Z,97432.28
2022-11-28T00:48:56.662Z,97434.22
2022-11-28T00:51:27.131Z,97427.13
2022-11-28T00:53:57.728Z,97429.81
2022-11-28T00:56:27.756Z,97426.34
2022-11-28T00:58:58.086Z,97427.19
2022-11-28T01:01:28.910Z,97426.38
2022-11-28T01:03:59.594Z,97416.34
2022-11-28T01:06:29.829Z,97427.31
2022-11-28T01:09:00.166Z,97428.13
2022-11-28T01:11:29.413Z,97424.78
2022-11-28T01:14:01.453Z,97420.47
2022-11-28T01:16:30.598Z,97413.69
2022-11-28T01:18:58.793Z,97412.81
2022-11-28T01:21:27.170Z,97408.38
2022-11-28T01:23:55.250Z,97400.69
2022-11-28T01:26:25.011Z,97398.03
2022-11-28T01:28:53.242Z,97394.75
2022-11-28T01:31:24.356Z,97382.59
2022-11-28T01:33:53.513Z,97377.72
2022-11-28T01:36:23.137Z,97372.72
2022-11-28T01:38:51.804Z,97371.69
2022-11-28T01:41:25.278Z,97371.75
2022-11-28T01:44:08.106Z,97363.84
2022-11-28T01:46:38.074Z,97358.78
2022-11-28T01:49:15.303Z,97367.34
2022-11-28T01:51:47.776Z,97357.25
2022-11-28T01:54:18.006Z,97356.31
2022-11-28T01:56:51.268Z,97353.78
2022-11-28T01:59:21.002Z,97356.56
2022-11-28T02:01:53.439Z,97358.22
2022-11-28T02:04:21.672Z,97351.38
2022-11-28T02:06:50.054Z,97348.81
2022-11-28T02:09:18.269Z,97349.66
2022-11-28T02:12:07.656Z,97345.97
2022-11-28T02:14:51.397Z,97343.47
2022-11-28T02:17:36.032Z,97340.13
2022-11-28T02:20:32.274Z,97338.50
2022-11-28T02:23:08.697Z,97337.72
2022-11-28T02:26:10.257Z,97341.06
2022-11-28T02:29:00.377Z,97321.31
2022-11-28T02:31:57.436Z,97330.56
2022-11-28T02:34:33.282Z,97323.88
2022-11-28T02:37:08.591Z,97323.97
2022-11-28T02:39:46.456Z,97318.78
2022-11-28T02:42:20.098Z,97320.44
2022-11-28T02:44:56.714Z,97328.22
2022-11-28T02:47:32.517Z,97321.31
2022-11-28T02:50:06.454Z,97321.38
2022-11-28T02:52:40.432Z,97322.31
2022-11-28T02:55:10.108Z,97315.44
2022-11-28T02:57:39.886Z,97324.72
2022-11-28T03:00:29.421Z,97314.66
2022-11-28T03:03:19.107Z,97313.81
2022-11-28T03:05:53.093Z,97301.78
2022-11-28T03:08:54.431Z,97300.00
2022-11-28T03:11:36.033Z,97297.53
2022-11-28T03:14:15.663Z,97305.25
2022-11-28T03:16:49.337Z,97302.72
2022-11-28T03:19:25.393Z,97295.81
2022-11-28T03:22:04.061Z,97288.97
2022-11-28T03:24:36.947Z,97292.31
2022-11-28T03:27:09.811Z,97294.13
2022-11-28T03:29:42.492Z,97283.91
2022-11-28T03:32:15.559Z,97288.97
2022-11-28T03:34:48.782Z,97300.16
2022-11-28T03:37:21.368Z,97304.41
2022-11-28T03:39:55.321Z,97295.00
2022-11-28T03:42:25.939Z,97296.75
2022-11-28T03:44:57.816Z,97297.63
2022-11-28T03:47:31.407Z,97293.31
2022-11-28T03:50:06.066Z,97283.06
2022-11-28T03:52:38.117Z,97283.88
2022-11-28T03:55:12.434Z,97287.28
2022-11-28T03:57:46.328Z,97277.03
2022-11-28T04:00:15.820Z,97270.91
2022-11-28T04:02:54.047Z,97268.50
2022-11-28T04:05:29.776Z,97279.63
2022-11-28T04:08:04.860Z,97275.38
2022-11-28T04:10:37.208Z,97278.75
2022-11-28T04:13:13.969Z,97278.75
2022-11-28T04:15:48.761Z,97272.78
2022-11-28T04:18:22.445Z,97273.63
2022-11-28T04:20:59.464Z,97271.03
2022-11-28T04:23:29.410Z,97271.06
2022-11-28T04:26:02.715Z,97259.09
2022-11-28T04:28:34.996Z,97265.81
2022-11-28T04:31:07.075Z,97255.66
2022-11-28T04:33:39.170Z,97260.75
2022-11-28T04:36:11.788Z,97255.59
2022-11-28T04:38:43.107Z,97240.06
2022-11-28T04:41:16.713Z,97246.19
2022-11-28T04:43:49.066Z,97253.13
2022-11-28T04:46:25.117Z,97256.47
2022-11-28T04:48:53.313Z,97246.06
2022-11-28T04:51:27.550Z,97252.16
2022-11-28T04:54:02.551Z,97247.88
2022-11-28T04:56:40.252Z,97254.59
2022-11-28T04:59:10.029Z,97241.00
2022-11-28T05:01:40.092Z,97247.81
2022-11-28T05:04:08.862Z,97251.31
2022-11-28T05:06:38.631Z,97240.97
2022-11-28T05:09:06.961Z,97243.56
2022-11-28T05:11:35.263Z,97242.63
2022-11-28T05:14:03.502Z,97243.56
2022-11-28T05:16:31.783Z,97235.81
2022-11-28T05:19:00.209Z,97234.84
2022-11-28T05:21:28.321Z,97237.47
2022-11-28T05:23:57.866Z,97232.44
2022-11-28T05:26:26.325Z,97231.63
2022-11-28T05:28:54.652Z,97232.47
2022-11-28T05:31:23.023Z,97220.53
2022-11-28T05:33:51.456Z,97220.53
2022-11-28T05:36:19.667Z,97220.34
2022-11-28T05:38:48.506Z,97212.44
2022-11-28T05:41:21.962Z,97210.97
2022-11-28T05:43:50.068Z,97212.59
2022-11-28T05:46:18.951Z,97213.31
2022-11-28T05:48:47.694Z,97208.22
2022-11-28T05:51:16.024Z,97203.28
2022-11-28T05:53:44.549Z,97206.38
2022-11-28T05:56:15.618Z,97198.19
2022-11-28T05:58:46.208Z,97194.31
2022-11-28T06:01:18.852Z,97194.53
2022-11-28T06:03:48.092Z,97191.22
2022-11-28T06:06:18.772Z,97182.66
2022-11-28T06:08:47.958Z,97184.19
2022-11-28T06:11:16.689Z,97178.13
2022-11-28T06:13:48.224Z,97186.66
2022-11-28T06:16:18.227Z,97189.56
2022-11-28T06:18:46.382Z,97192.03
2022-11-28T06:21:18.978Z,97178.16
2022-11-28T06:23:47.101Z,97184.81
2022-11-28T06:26:17.944Z,97199.63
2022-11-28T06:28:47.671Z,97187.94
2022-11-28T06:31:18.042Z,97202.19
2022-11-28T06:33:46.683Z,97204.91
2022-11-28T06:36:16.492Z,97200.72
2022-11-28T06:38:45.234Z,97198.78
2022-11-28T06:41:15.557Z,97194.56
2022-11-28T06:43:44.131Z,97192.94
2022-11-28T06:46:16.411Z,97185.19
2022-11-28T06:48:47.082Z,97186.41
2022-11-28T06:51:16.187Z,97189.16
2022-11-28T06:53:44.698Z,97181.50
2022-11-28T06:56:15.115Z,97188.94
2022-11-28T06:58:44.037Z,97186.66
2022-11-28T07:01:15.818Z,97188.44
2022-11-28T07:03:44.746Z,97179.09
2022-11-28T07:06:13.575Z,97185.88
2022-11-28T07:08:42.333Z,97174.69
2022-11-28T07:11:13.051Z,97173.75
2022-11-28T07:13:42.256Z,97173.47
2022-11-28T07:16:16.452Z,97166.03
2022-11-28T07:18:44.942Z,97182.41
2022-11-28T07:21:14.682Z,97171.88
2022-11-28T07:23:47.270Z,97165.25
2022-11-28T07:26:19.586Z,97176.66
2022-11-28T07:28:49.213Z,97173.38
2022-11-28T07:31:21.210Z,97179.38
2022-11-28T07:33:51.767Z,97180.81
2022-11-28T07:36:21.937Z,97174.06
2022-11-28T07:38:51.089Z,97172.56
2022-11-28T07:41:23.762Z,97184.13
2022-11-28T07:43:56.562Z,97175.53
2022-11-28T07:46:27.974Z,97160.69
2022-11-28T07:48:56.649Z,97154.84
2022-11-28T07:51:26.830Z,97161.94
2022-11-28T07:53:56.473Z,97151.22
2022-11-28T07:56:39.480Z,97152.19
2022-11-28T07:59:16.489Z,97159.63
2022-11-28T08:01:46.264Z,97145.69
2022-11-28T08:04:16.674Z,97135.03
2022-11-28T08:06:45.069Z,97155.34
2022-11-28T08:09:14.711Z,97146.22
2022-11-28T08:11:43.360Z,97148.50
2022-11-28T08:14:11.605Z,97145.53
2022-11-28T08:16:44.965Z,97143.13
2022-11-28T08:19:15.012Z,97134.25
2022-11-28T08:21:43.887Z,97134.75
2022-11-28T08:24:13.238Z,97141.16
2022-11-28T08:26:41.507Z,97130.88
2022-11-28T08:29:11.004Z,97119.03
2022-11-28T08:31:42.891Z,97116.09
2022-11-28T08:34:12.795Z,97118.28
2022-11-28T08:36:43.381Z,97117.53
2022-11-28T08:39:27.788Z,97114.41
2022-11-28T08:41:58.932Z,97116.16
2022-11-28T08:44:30.376Z,97115.91
2022-11-28T08:47:00.137Z,97114.31
2022-11-28T08:49:30.636Z,97113.88
2022-11-28T08:52:02.863Z,97109.38
2022-11-28T08:54:31.498Z,97121.38
2022-11-28T08:57:01.395Z,97108.72
2022-11-28T08:59:29.809Z,97116.88
2022-11-28T09:01:58.879Z,97103.28
2022-11-28T09:04:26.958Z,97095.97
2022-11-28T09:06:55.461Z,97112.31
2022-11-28T09:09:31.452Z,97109.59
2022-11-28T09:12:01.264Z,97108.16
2022-11-28T09:14:29.397Z,97112.00
2022-11-28T09:16:57.779Z,97118.22
2022-11-28T09:19:28.580Z,97112.94
2022-11-28T09:21:58.080Z,97117.41
2022-11-28T09:24:28.158Z,97109.91
2022-11-28T09:26:56.304Z,97107.72
2022-11-28T09:29:24.339Z,97104.19
2022-11-28T09:31:52.511Z,97111.81
2022-11-28T09:34:21.359Z,97099.91
2022-11-28T09:36:50.217Z,97091.63
2022-11-28T09:39:19.005Z,97102.19
2022-11-28T09:42:03.660Z,97091.06
2022-11-28T09:44:38.825Z,97080.88
2022-11-28T09:47:14.813Z,97089.28
2022-11-28T09:49:48.596Z,97079.50
2022-11-28T09:52:27.885Z,97080.72
2022-11-28T09:55:10.980Z,97081.38
2022-11-28T09:57:45.293Z,97079.13
2022-11-28T10:00:18.821Z,97080.19
2022-11-28T10:03:03.226Z,97076.06
2022-11-28T10:05:38.833Z,97058.13
2022-11-28T10:08:25.803Z,97060.97
2022-11-28T10:11:01.855Z,97063.25
2022-11-28T10:14:06.656Z,97058.38
2022-11-28T10:16:43.165Z,97063.00
2022-11-28T10:19:46.049Z,97054.97
2022-11-28T10:22:14.640Z,97052.88
2022-11-28T10:24:48.005Z,97055.78
2022-11-28T10:27:21.306Z,97056.41
2022-11-28T10:30:01.229Z,97058.28
2022-11-28T10:32:35.664Z,97060.88
2022-11-28T10:35:07.473Z,97061.56
2022-11-28T10:37:37.956Z,97058.91
2022-11-28T10:40:19.134Z,97052.69
2022-11-28T10:42:52.527Z,97050.19
2022-11-28T10:45:28.859Z,97049.78
2022-11-28T10:48:39.133Z,97049.06
2022-11-28T10:51:19.937Z,97052.81
2022-11-28T10:54:01.512Z,97050.19
2022-11-28T10:56:38.796Z,97048.59
2022-11-28T10:59:18.735Z,97051.81
2022-11-28T11:01:51.130Z,97048.78
2022-11-28T11:04:23.029Z,97053.78
2022-11-28T11:07:16.145Z,97054.78
2022-11-28T11:09:46.553Z,97054.50
2022-11-28T11:12:21.363Z,97057.97
2022-11-28T11:14:49.602Z,97054.63
2022-11-28T11:17:36.711Z,97053.72
2022-11-28T11:20:28.194Z,97052.66
2022-11-28T11:22:57.221Z,97045.16
2022-11-28T11:25:26.653Z,97036.97
2022-11-28T11:27:57.383Z,97036.59
2022-11-28T11:30:29.161Z,97026.50
2022-11-28T11:33:00.726Z,97025.91
2022-11-28T11:35:30.794Z,97030.50
2022-11-28T11:38:19.160Z,97032.97
2022-11-28T11:40:47.898Z,97021.72
2022-11-28T11:43:27.952Z,97028.88
2022-11-28T11:46:08.494Z,97027.63
2022-11-28T11:48:41.119Z,97029.25
2022-11-28T11:51:22.977Z,97020.81
2022-11-28T11:54:03.340Z,97022.25
2022-11-28T11:56:35.634Z,97025.53
2022-11-28T11:59:11.731Z,97023.91
2022-11-28T12:01:41.633Z,97009.16
2022-11-28T12:04:43.756Z,97014.34
2022-11-28T12:07:21.369Z,97012.19
2022-11-28T12:09:54.657Z,97006.44
2022-11-28T12:12:26.667Z,97011.81
2022-11-28T12:14:54.991Z,97000.28
2022-11-28T12:20:44.189Z,97002.91
2022-11-28T12:23:34.812Z,96999.22
2022-11-28T12:26:15.558Z,96995.28
2022-11-28T12:28:55.893Z,96984.19
2022-11-28T12:31:32.796Z,96984.31
2022-11-28T12:34:13.523Z,96987.75
2022-11-28T12:36:53.636Z,96994.50
2022-11-28T12:39:37.416Z,96992.59
2022-11-28T12:42:28.688Z,96994.34
2022-11-28T12:45:17.120Z,96989.91
2022-11-28T12:47:57.680Z,96987.81
2022-11-28T12:50:35.349Z,96981.56
2022-11-28T12:53:27.409Z,96975.94
2022-11-28T12:56:02.319Z,96986.16
2022-11-28T12:58:35.067Z,96988.31
2022-11-28T13:01:14.981Z,96982.91
2022-11-28T13:04:01.179Z,96976.66
2022-11-28T13:06:39.261Z,96979.19
2022-11-28T13:09:26.437Z,96983.97
2022-11-28T13:12:04.508Z,96984.22
2022-11-28T13:14:43.958Z,96988.16
2022-11-28T13:17:23.726Z,96997.56
2022-11-28T13:20:00.505Z,97000.47
2022-11-28T13:22:39.380Z,96992.59
2022-11-28T13:25:20.969Z,96994.16
2022-11-28T13:27:59.773Z,96994.22
2022-11-28T13:30:36.280Z,96983.44
2022-11-28T13:33:13.611Z,96985.19
2022-11-28T13:35:43.800Z,96995.81
2022-11-28T13:38:36.930Z,96987.31
2022-11-28T13:41:28.818Z,96993.16
2022-11-28T13:44:05.389Z,96998.50
2022-11-28T13:46:35.030Z,97000.06
2022-11-28T13:49:14.731Z,96987.41
2022-11-28T13:51:43.577Z,96994.84
2022-11-28T13:54:43.005Z,96988.63
2022-11-28T13:57:21.975Z,96983.38
2022-11-28T13:59:57.705Z,96995.22
2022-11-28T14:02:37.370Z,96981.97
2022-11-28T14:05:18.735Z,96994.53
2022-11-28T14:07:52.027Z,96995.63
2022-11-28T14:10:35.441Z,96993.59
2022-11-28T14:13:25.393Z,96986.00
2022-11-28T14:16:07.836Z,96996.19
2022-11-28T14:18:58.108Z,96989.22
2022-11-28T14:21:40.181Z,96993.97
2022-11-28T14:24:17.949Z,96990.94
2022-11-28T14:26:47.320Z,96994.00
2022-11-28T14:29:34.158Z,96991.53
2022-11-28T14:34:51.319Z,96986.78
2022-11-28T14:37:52.107Z,96980.28
2022-11-28T14:40:56.680Z,96989.84
2022-11-28T14:43:28.472Z,97006.38
2022-11-28T14:46:32.047Z,96994.16
2022-11-28T14:49:21.785Z,97001.66
2022-11-28T14:52:39.095Z,96999.75
2022-11-28T14:55:22.216Z,96999.38
2022-11-28T14:58:00.022Z,97006.56
2022-11-28T15:00:32.602Z,97003.97
2022-11-28T15:03:17.853Z,96997.91
2022-11-28T15:05:51.031Z,97002.78
2022-11-28T15:08:47.413Z,97008.13
2022-11-28T15:11:26.469Z,97006.44
2022-11-28T15:14:08.949Z,97009.00
2022-11-28T15:16:45.216Z,97012.00
2022-11-28T15:19:27.087Z,97020.97
2022-11-28T15:21:57.832Z,97011.28
2022-11-28T15:24:30.441Z,97021.69
2022-11-28T15:27:17.562Z,97015.09
2022-11-28T15:29:54.807Z,97014.34
2022-11-28T15:32:24.000Z,97019.63
2022-11-28T15:35:01.216Z,97012.75
2022-11-28T15:37:32.333Z,97014.69
2022-11-28T15:40:03.742Z,97018.63
2022-11-28T15:42:34.373Z,97007.19
2022-11-28T15:45:09.703Z,97010.69
2022-11-28T15:47:39.522Z,97005.41
2022-11-28T15:50:20.149Z,97019.34
2022-11-28T15:53:01.344Z,97004.41
2022-11-28T15:55:32.653Z,97006.34
2022-11-28T15:58:19.152Z,97013.03
2022-11-28T16:00:51.890Z,97016.91
2022-11-28T16:03:24.192Z,97020.75
2022-11-28T16:05:56.030Z,97017.47
2022-11-28T16:08:30.382Z,97017.25
2022-11-28T16:10:59.460Z,97015.47
2022-11-28T16:13:31.488Z,97015.50
2022-11-28T16:16:01.547Z,97002.28
2022-11-28T16:18:31.104Z,97009.28
2022-11-28T16:21:02.295Z,97016.41
2022-11-28T16:23:34.596Z,97012.56
2022-11-28T16:26:04.830Z,97014.22
2022-11-28T16:28:34.646Z,97010.81
2022-11-28T16:31:03.190Z,97009.38
2022-11-28T16:33:42.552Z,97003.56
2022-11-28T16:36:32.009Z,97003.91
2022-11-28T16:39:09.303Z,97005.97
2022-11-28T16:41:38.386Z,97003.53
2022-11-28T16:44:08.590Z,97001.19
2022-11-28T16:46:39.844Z,97002.00
2022-11-28T16:49:17.575Z,96998.44
2022-11-28T16:51:47.868Z,96999.75
2022-11-28T16:54:31.514Z,96999.59
2022-11-28T16:57:11.256Z,97005.63
2022-11-28T16:59:39.359Z,96998.97
2022-11-28T17:02:15.654Z,96995.97
2022-11-28T17:04:45.030Z,96992.81
2022-11-28T17:07:16.770Z,96994.31
2022-11-28T17:09:46.711Z,96987.25
2022-11-28T17:12:22.950Z,96985.72
2022-11-28T17:14:51.277Z,96987.50
2022-11-28T17:17:23.217Z,96980.16
2022-11-28T17:19:52.005Z,96990.81
2022-11-28T17:22:24.880Z,96984.63
2022-11-28T17:24:59.037Z,96984.81
2022-11-28T17:27:27.381Z,96989.59
2022-11-28T17:29:55.502Z,96993.47
2022-11-28T17:32:24.078Z,96985.25
2022-11-28T17:34:53.567Z,96982.56
2022-11-28T17:37:23.045Z,96977.22
2022-11-28T17:40:07.383Z,96975.50
2022-11-28T17:42:35.447Z,96988.94
2022-11-28T17:45:03.631Z,96978.91
2022-11-28T17:47:31.844Z,96979.31
2022-11-28T17:50:00.170Z,96982.47
2022-11-28T17:52:31.008Z,96981.81
2022-11-28T17:55:06.860Z,96983.41
2022-11-28T17:57:36.421Z,96985.59
2022-11-28T18:00:06.621Z,96978.69
2022-11-28T18:02:42.136Z,96980.22
2022-11-28T18:05:10.985Z,96976.81
2022-11-28T18:07:42.291Z,96977.91
2022-11-28T18:10:12.848Z,96984.66
2022-11-28T18:12:40.914Z,96970.81
2022-11-28T18:15:11.478Z,96969.84
2022-11-28T18:17:39.978Z,96974.75
2022-11-28T18:20:10.047Z,96974.84
2022-11-28T18:22:38.664Z,96973.47
2022-11-28T18:25:09.839Z,96966.72
2022-11-28T18:27:38.494Z,96972.84
2022-11-28T18:30:08.769Z,96957.88
2022-11-28T18:32:37.092Z,96957.16
2022-11-28T18:35:05.659Z,96961.00
2022-11-28T18:37:33.698Z,96963.72
2022-11-28T18:40:06.293Z,96957.34
2022-11-28T18:42:38.466Z,96953.69
2022-11-28T18:45:07.837Z,96962.91
2022-11-28T18:47:36.057Z,96964.78
2022-11-28T18:50:04.502Z,96957.66
2022-11-28T18:52:32.725Z,96964.16
2022-11-28T18:55:00.733Z,96968.72
2022-11-28T18:57:32.817Z,96973.56
2022-11-28T19:00:02.938Z,96976.22
2022-11-28T19:02:33.151Z,96982.97
2022-11-28T19:05:01.729Z,96965.50
2022-11-28T19:07:30.353Z,96964.94
2022-11-28T19:10:01.866Z,96961.25
2022-11-28T19:12:30.076Z,96960.44
2022-11-28T19:15:02.722Z,96959.81
2022-11-28T19:17:34.908Z,96963.81
2022-11-28T19:20:05.744Z,96959.13
2022-11-28T19:22:36.011Z,96961.34
2022-11-28T19:25:04.350Z,96961.41
2022-11-28T19:27:32.432Z,96953.44
2022-11-28T19:30:00.872Z,96966.31
2022-11-28T19:32:32.658Z,96966.94
2022-11-28T19:35:00.994Z,96968.00
2022-11-28T19:37:29.229Z,96970.03
2022-11-28T19:40:02.186Z,96969.66
2022-11-28T19:42:31.472Z,96965.72
2022-11-28T19:44:59.720Z,96962.78
2022-11-28T19:47:28.679Z,96960.97
2022-11-28T19:49:58.128Z,96969.53
2022-11-28T19:52:26.292Z,96961.78
2022-11-28T19:54:54.585Z,96964.28
2022-11-28T19:57:24.077Z,96974.66
2022-11-28T19:59:53.724Z,96975.81
2022-11-28T20:02:23.511Z,96971.16
2022-11-28T20:04:52.226Z,96977.25
2022-11-28T20:07:22.289Z,96980.31
2022-11-28T20:09:50.818Z,96980.97
2022-11-28T20:12:19.160Z,96988.09
2022-11-28T20:14:47.289Z,96983.00
2022-11-28T20:17:16.227Z,96984.72
2022-11-28T20:19:46.026Z,96985.31
2022-11-28T20:22:14.617Z,96991.56
2022-11-28T20:24:44.196Z,96985.94
2022-11-28T20:27:12.419Z,96985.81
2022-11-28T20:29:40.607Z,96986.03
2022-11-28T20:32:10.141Z,96988.81
2022-11-28T20:34:44.238Z,96982.22
2022-11-28T20:37:12.664Z,96993.09
2022-11-28T20:39:41.118Z,96987.09
2022-11-28T20:42:10.837Z,96989.19
2022-11-28T20:44:39.075Z,96989.06
2022-11-28T20:47:08.266Z,96981.59
2022-11-28T20:49:36.481Z,96987.91
2022-11-28T20:52:04.930Z,96987.03
2022-11-28T20:54:33.329Z,96978.84
2022-11-28T20:59:52.494Z,96974.16
2022-11-28T21:02:20.685Z,96980.97
2022-11-28T21:04:48.839Z,96983.50
2022-11-28T21:07:18.572Z,96978.22
2022-11-28T21:09:47.055Z,96981.91
2022-11-28T21:12:20.659Z,96983.50
2022-11-28T21:14:49.153Z,96981.09
2022-11-28T21:17:18.504Z,96996.94
2022-11-28T21:19:47.056Z,96979.03
2022-11-28T21:22:15.060Z,96990.88
2022-11-28T21:24:44.942Z,96980.13
2022-11-28T21:27:12.985Z,96977.28
2022-11-28T21:29:43.013Z,96978.25
2022-11-28T21:32:13.654Z,96978.25
2022-11-28T21:34:45.957Z,96974.88
2022-11-28T21:37:16.441Z,96978.81
2022-11-28T21:39:44.766Z,96976.34
2022-11-28T21:42:18.928Z,96972.00
2022-11-28T21:44:48.996Z,96973.47
2022-11-28T21:47:16.962Z,96976.81
2022-11-28T21:49:46.718Z,96973.47
2022-11-28T21:52:16.591Z,96977.63
2022-11-28T21:54:45.732Z,96974.66
2022-11-28T21:57:16.413Z,96977.28
2022-11-28T21:59:44.948Z,96976.19
2022-11-28T22:02:15.849Z,96983.66
2022-11-28T22:04:44.631Z,96986.28
2022-11-28T22:07:15.053Z,96983.91
2022-11-28T22:09:43.441Z,96984.63
2022-11-28T22:12:11.378Z,96983.38
2022-11-28T22:14:39.486Z,96983.47
2022-11-28T22:17:07.656Z,96985.97
2022-11-28T22:19:35.935Z,96985.00
2022-11-28T22:22:04.309Z,96981.34
2022-11-28T22:24:34.563Z,96990.06
2022-11-28T22:27:05.635Z,96983.78
2022-11-28T22:29:36.967Z,96994.25
2022-11-28T22:32:05.717Z,96999.75
2022-11-28T22:34:39.480Z,96991.63
2022-11-28T22:37:08.838Z,96996.31
2022-11-28T22:39:39.489Z,96991.25
2022-11-28T22:42:07.772Z,96992.94
2022-11-28T22:44:35.818Z,97001.50
2022-11-28T22:47:03.918Z,97004.81
2022-11-28T22:49:31.957Z,97004.19
2022-11-28T22:52:00.270Z,97001.00
2022-11-28T22:54:28.811Z,96997.09
2022-11-28T22:56:58.235Z,96997.63
2022-11-28T22:59:27.027Z,96997.19
2022-11-28T23:01:55.412Z,96985.75
2022-11-28T23:04:23.587Z,96982.50
2022-11-28T23:06:52.443Z,96990.88
2022-11-28T23:09:21.175Z,96991.72
2022-11-28T23:11:50.004Z,96991.59
2022-11-28T23:14:20.506Z,97001.88
2022-11-28T23:16:49.607Z,96995.34
2022-11-28T23:19:20.111Z,96993.47
2022-11-28T23:21:49.576Z,96995.31
2022-11-28T23:24:19.864Z,96990.19
2022-11-28T23:26:48.524Z,96992.91
2022-11-28T23:29:17.052Z,96999.22
2022-11-28T23:31:49.788Z,97002.59
2022-11-28T23:34:18.023Z,96995.25
2022-11-28T23:36:47.850Z,96999.84
2022-11-28T23:39:17.800Z,96999.22
2022-11-28T23:41:46.539Z,97009.72
2022-11-28T23:44:16.490Z,97005.25
2022-11-28T23:46:48.274Z,97003.06
2022-11-28T23:49:18.359Z,97004.59
2022-11-28T23:51:46.396Z,97018.00
2022-11-28T23:54:14.616Z,97004.19
2022-11-28T23:56:45.914Z,97009.19
2022-11-28T23:59:16.509Z,97017.34
